createdAt,value
2019-01-05T00:00:50.595Z,994.620
2019-01-05T00:02:50.292Z,994.622
2019-01-05T00:04:50.402Z,994.618
2019-01-05T00:06:50.551Z,994.547
2019-01-05T00:08:50.290Z,994.533
2019-01-05T00:10:50.329Z,994.517
2019-01-05T00:12:50.363Z,994.512
2019-01-05T00:14:50.403Z,994.468
2019-01-05T00:16:50.162Z,994.448
2019-01-05T00:18:50.155Z,994.397
2019-01-05T00:20:50.172Z,994.396
2019-01-05T00:22:50.173Z,994.397
2019-01-05T00:24:50.191Z,994.363
2019-01-05T00:26:50.380Z,994.363
2019-01-05T00:28:50.383Z,994.335
2019-01-05T00:30:49.713Z,994.328
2019-01-05T00:32:49.936Z,994.323
2019-01-05T00:34:50.180Z,994.273
2019-01-05T00:36:50.574Z,994.290
2019-01-05T00:38:50.645Z,994.314
2019-01-05T00:40:50.265Z,994.298
2019-01-05T00:42:50.312Z,994.322
2019-01-05T00:44:50.258Z,994.345
2019-01-05T00:46:50.450Z,994.365
2019-01-05T00:48:49.713Z,994.366
2019-01-05T00:50:49.872Z,994.331
2019-01-05T00:52:49.820Z,994.304
2019-01-05T00:54:49.893Z,994.322
2019-01-05T00:56:49.882Z,994.354
2019-01-05T00:58:49.885Z,994.403
2019-01-05T01:00:50.185Z,994.424
2019-01-05T01:02:49.918Z,994.429
2019-01-05T01:04:50.209Z,994.463
2019-01-05T01:06:50.454Z,994.486
2019-01-05T01:08:50.442Z,994.519
2019-01-05T01:10:49.736Z,994.530
2019-01-05T01:12:49.744Z,994.539
2019-01-05T01:14:49.785Z,994.539
2019-01-05T01:16:50.126Z,994.541
2019-01-05T01:18:50.135Z,994.544
2019-01-05T01:20:50.184Z,994.533
2019-01-05T01:22:50.255Z,994.446
2019-01-05T01:24:50.415Z,994.413
2019-01-05T01:26:49.631Z,994.342
2019-01-05T01:28:49.647Z,994.319
2019-01-05T01:30:49.676Z,994.311
2019-01-05T01:32:49.644Z,994.277
2019-01-05T01:34:50.247Z,994.289
2019-01-05T01:36:50.259Z,994.219
2019-01-05T01:38:50.346Z,994.214
2019-01-05T01:40:50.199Z,994.172
2019-01-05T01:42:49.698Z,994.166
2019-01-05T01:44:49.870Z,994.120
2019-01-05T01:46:49.877Z,994.103
2019-01-05T01:48:49.729Z,994.090
2019-01-05T01:50:49.774Z,994.078
2019-01-05T01:52:49.854Z,994.061
2019-01-05T01:54:50.079Z,994.018
2019-01-05T01:56:50.283Z,993.995
2019-01-05T01:58:50.302Z,993.970
2019-01-05T02:00:50.393Z,993.940
2019-01-05T02:02:50.277Z,993.922
2019-01-05T02:04:49.780Z,993.845
2019-01-05T02:06:50.107Z,993.863
2019-01-05T02:08:50.038Z,993.813
2019-01-05T02:10:50.047Z,993.781
2019-01-05T02:12:49.955Z,993.792
2019-01-05T02:14:49.931Z,993.770
2019-01-05T02:16:50.257Z,993.770
2019-01-05T02:18:49.837Z,993.770
2019-01-05T02:20:49.937Z,993.730
2019-01-05T02:22:50.114Z,993.678
2019-01-05T02:24:50.175Z,993.643
2019-01-05T02:26:50.132Z,993.643
2019-01-05T02:28:50.402Z,993.636
2019-01-05T02:30:49.953Z,993.604
2019-01-05T02:32:50.089Z,993.602
2019-01-05T02:34:49.694Z,993.597
2019-01-05T02:36:50.280Z,993.602
2019-01-05T02:38:50.393Z,993.579
2019-01-05T02:40:50.435Z,993.549
2019-01-05T02:42:50.508Z,993.493
2019-01-05T02:44:50.502Z,993.431
2019-01-05T02:46:50.098Z,993.431
2019-01-05T02:48:50.099Z,993.369
2019-01-05T02:50:50.129Z,993.357
2019-01-05T02:52:50.173Z,993.347
2019-01-05T02:54:50.200Z,993.309
2019-01-05T02:56:50.319Z,993.270
2019-01-05T02:58:50.322Z,993.199
2019-01-05T03:00:50.329Z,993.157
2019-01-05T03:02:49.626Z,993.068
2019-01-05T03:04:49.719Z,992.955
2019-01-05T03:06:50.060Z,992.905
2019-01-05T03:08:50.315Z,992.850
2019-01-05T03:10:49.983Z,992.816
2019-01-05T03:12:49.991Z,992.796
2019-01-05T03:14:50.021Z,992.779
2019-01-05T03:16:49.812Z,992.709
2019-01-05T03:18:49.899Z,992.639
2019-01-05T03:20:50.035Z,992.601
2019-01-05T03:22:50.426Z,992.491
2019-01-05T03:24:50.575Z,992.492
2019-01-05T03:26:49.918Z,992.436
2019-01-05T03:28:49.929Z,992.416
2019-01-05T03:30:50.166Z,992.393
2019-01-05T03:32:50.329Z,992.382
2019-01-05T03:34:49.836Z,992.322
2019-01-05T03:36:50.196Z,992.291
2019-01-05T03:38:50.251Z,992.265
2019-01-05T03:40:49.711Z,992.198
2019-01-05T03:42:49.823Z,992.163
2019-01-05T03:44:49.762Z,992.080
2019-01-05T03:46:50.149Z,991.972
2019-01-05T03:48:50.230Z,991.933
2019-01-05T03:50:50.230Z,991.820
2019-01-05T03:52:50.117Z,991.828
2019-01-05T03:54:49.891Z,991.803
2019-01-05T03:56:50.198Z,991.790
2019-01-05T03:58:50.234Z,991.709
2019-01-05T04:00:49.705Z,991.707
2019-01-05T04:02:50.137Z,991.641
2019-01-05T04:04:50.356Z,991.618
2019-01-05T04:06:49.647Z,991.619
2019-01-05T04:08:50.141Z,991.630
2019-01-05T04:10:50.177Z,991.631
2019-01-05T04:12:49.825Z,991.586
2019-01-05T04:14:49.848Z,991.511
2019-01-05T04:16:50.080Z,991.505
2019-01-05T04:18:50.559Z,991.518
2019-01-05T04:20:49.702Z,991.513
2019-01-05T04:22:49.953Z,991.509
2019-01-05T04:24:49.979Z,991.504
2019-01-05T04:26:50.203Z,991.510
2019-01-05T04:28:50.190Z,991.541
2019-01-05T04:30:50.230Z,991.531
2019-01-05T04:32:50.442Z,991.513
2019-01-05T04:34:49.896Z,991.482
2019-01-05T04:36:50.194Z,991.460
2019-01-05T04:38:49.722Z,991.407
2019-01-05T04:40:49.811Z,991.377
2019-01-05T04:42:50.132Z,991.328
2019-01-05T04:44:49.950Z,991.303
2019-01-05T04:46:50.177Z,991.224
2019-01-05T04:48:50.204Z,991.184
2019-01-05T04:50:50.009Z,991.155
2019-01-05T04:52:50.133Z,991.083
2019-01-05T04:54:49.652Z,991.075
2019-01-05T04:56:49.878Z,991.076
2019-01-05T04:58:49.649Z,991.107
2019-01-05T05:00:49.683Z,991.089
2019-01-05T05:02:50.309Z,991.084
2019-01-05T05:04:49.623Z,991.028
2019-01-05T05:06:50.016Z,990.990
2019-01-05T05:08:50.094Z,990.981
2019-01-05T05:10:50.068Z,990.955
2019-01-05T05:12:49.737Z,990.938
2019-01-05T05:14:49.766Z,990.923
2019-01-05T05:16:50.110Z,990.907
2019-01-05T05:18:50.222Z,990.888
2019-01-05T05:20:49.757Z,990.874
2019-01-05T05:22:49.960Z,990.881
2019-01-05T05:24:49.931Z,990.898
2019-01-05T05:26:49.864Z,990.902
2019-01-05T05:28:49.882Z,990.906
2019-01-05T05:30:49.955Z,990.833
2019-01-05T05:32:49.981Z,990.806
2019-01-05T05:34:50.354Z,990.744
2019-01-05T05:36:50.047Z,990.723
2019-01-05T05:38:50.049Z,990.715
2019-01-05T05:40:50.193Z,990.696
2019-01-05T05:42:50.257Z,990.642
2019-01-05T05:44:50.481Z,990.636
2019-01-05T05:46:49.678Z,990.636
2019-01-05T05:48:49.945Z,990.578
2019-01-05T05:50:50.386Z,990.551
2019-01-05T05:52:50.406Z,990.519
2019-01-05T05:54:50.622Z,990.508
2019-01-05T05:56:50.019Z,990.484
2019-01-05T05:58:50.224Z,990.451
2019-01-05T06:00:50.269Z,990.432
2019-01-05T06:02:49.598Z,990.413
2019-01-05T06:04:50.372Z,990.400
2019-01-05T06:06:49.714Z,990.358
2019-01-05T06:08:49.890Z,990.318
2019-01-05T06:10:50.319Z,990.318
2019-01-05T06:12:50.421Z,990.309
2019-01-05T06:14:50.497Z,990.294
2019-01-05T06:16:50.044Z,990.288
2019-01-05T06:18:50.476Z,990.288
2019-01-05T06:20:50.442Z,990.210
2019-01-05T06:22:50.520Z,990.132
2019-01-05T06:24:50.538Z,990.132
2019-01-05T06:26:49.958Z,990.097
2019-01-05T06:28:50.516Z,990.081
2019-01-05T06:30:50.593Z,990.057
2019-01-05T06:32:49.636Z,990.042
2019-01-05T06:34:49.392Z,990.048
2019-01-05T06:36:50.217Z,990.038
2019-01-05T06:38:49.872Z,989.999
2019-01-05T06:40:49.957Z,989.985
2019-01-05T06:42:49.841Z,989.976
2019-01-05T06:44:49.842Z,989.980
2019-01-05T06:46:50.507Z,989.947
2019-01-05T06:48:50.534Z,989.912
2019-01-05T06:50:50.005Z,989.877
2019-01-05T06:52:50.056Z,989.845
2019-01-05T06:54:50.040Z,989.862
2019-01-05T06:56:49.861Z,989.882
2019-01-05T06:58:49.954Z,989.850
2019-01-05T07:00:49.792Z,989.846
2019-01-05T07:02:50.007Z,989.847
2019-01-05T07:04:50.450Z,989.865
2019-01-05T07:06:50.632Z,989.878
2019-01-05T07:08:49.634Z,989.922
2019-01-05T07:10:50.549Z,989.918
2019-01-05T07:12:49.613Z,989.935
2019-01-05T07:14:49.759Z,989.933
2019-01-05T07:16:49.625Z,989.898
2019-01-05T07:18:49.789Z,989.877
2019-01-05T07:20:49.832Z,989.882
2019-01-05T07:22:49.864Z,989.905
2019-01-05T07:24:49.843Z,989.893
2019-01-05T07:26:50.435Z,989.873
2019-01-05T07:28:50.434Z,989.859
2019-01-05T07:30:50.506Z,989.877
2019-01-05T07:32:50.147Z,989.912
2019-01-05T07:34:50.249Z,989.909
2019-01-05T07:36:50.549Z,989.954
2019-01-05T07:38:49.684Z,989.954
2019-01-05T07:40:50.311Z,989.901
2019-01-05T07:42:49.736Z,989.918
2019-01-05T07:44:49.500Z,989.910
2019-01-05T07:46:50.040Z,989.867
2019-01-05T07:48:50.096Z,989.822
2019-01-05T07:50:50.081Z,989.763
2019-01-05T07:52:50.102Z,989.763
2019-01-05T07:54:50.085Z,989.781
2019-01-05T07:56:49.625Z,989.774
2019-01-05T07:58:50.259Z,989.787
2019-01-05T08:00:50.534Z,989.746
2019-01-05T08:02:49.802Z,989.746
2019-01-05T08:04:50.321Z,989.740
2019-01-05T08:06:50.566Z,989.725
2019-01-05T08:08:49.620Z,989.717
2019-01-05T08:10:49.744Z,989.721
2019-01-05T08:12:50.040Z,989.805
2019-01-05T08:14:49.868Z,989.842
2019-01-05T08:16:50.207Z,989.835
2019-01-05T08:18:50.201Z,989.768
2019-01-05T08:20:50.276Z,989.757
2019-01-05T08:22:50.423Z,989.813
2019-01-05T08:24:49.656Z,989.802
2019-01-05T08:26:50.048Z,989.804
2019-01-05T08:28:50.140Z,989.827
2019-01-05T08:30:49.913Z,989.862
2019-01-05T08:32:50.270Z,989.858
2019-01-05T08:34:49.859Z,989.847
2019-01-05T08:36:49.669Z,989.757
2019-01-05T08:38:49.728Z,989.757
2019-01-05T08:40:49.744Z,989.745
2019-01-05T08:42:49.717Z,989.714
2019-01-05T08:44:49.808Z,989.741
2019-01-05T08:46:50.628Z,989.765
2019-01-05T08:48:49.752Z,989.772
2019-01-05T08:50:49.844Z,989.701
2019-01-05T08:52:49.984Z,989.712
2019-01-05T08:54:49.596Z,989.721
2019-01-05T08:56:50.614Z,989.797
2019-01-05T08:58:49.646Z,989.821
2019-01-05T09:00:50.141Z,989.822
2019-01-05T09:02:50.434Z,989.816
2019-01-05T09:04:50.153Z,989.835
2019-01-05T09:06:50.594Z,989.839
2019-01-05T09:08:49.741Z,989.911
2019-01-05T09:10:50.530Z,989.925
2019-01-05T09:12:49.931Z,989.951
2019-01-05T09:14:50.000Z,989.944
2019-01-05T09:16:50.480Z,989.969
2019-01-05T09:18:50.569Z,989.986
2019-01-05T09:20:50.180Z,989.989
2019-01-05T09:22:50.219Z,990.001
2019-01-05T09:24:49.691Z,989.990
2019-01-05T09:26:49.776Z,989.976
2019-01-05T09:28:49.904Z,989.993
2019-01-05T09:30:50.292Z,990.017
2019-01-05T09:32:50.427Z,990.040
2019-01-05T09:34:49.921Z,990.040
2019-01-05T09:36:49.788Z,989.966
2019-01-05T09:38:49.815Z,989.974
2019-01-05T09:40:49.868Z,989.987
2019-01-05T09:42:49.733Z,989.987
2019-01-05T09:44:50.518Z,989.887
2019-01-05T09:46:50.498Z,989.869
2019-01-05T09:48:49.617Z,989.832
2019-01-05T09:50:49.680Z,989.810
2019-01-05T09:52:49.828Z,989.772
2019-01-05T09:54:49.864Z,989.779
2019-01-05T09:56:50.012Z,989.739
2019-01-05T09:58:49.601Z,989.729
2019-01-05T10:00:50.520Z,989.730
2019-01-05T10:02:49.895Z,989.709
2019-01-05T10:04:50.351Z,989.697
2019-01-05T10:06:49.671Z,989.687
2019-01-05T10:08:49.951Z,989.667
2019-01-05T10:10:49.708Z,989.648
2019-01-05T10:12:49.880Z,989.635
2019-01-05T10:14:49.935Z,989.607
2019-01-05T10:16:50.526Z,989.616
2019-01-05T10:18:50.580Z,989.628
2019-01-05T10:20:49.635Z,989.622
2019-01-05T10:22:49.885Z,989.603
2019-01-05T10:24:50.457Z,989.584
2019-01-05T10:26:49.746Z,989.578
2019-01-05T10:28:49.919Z,989.567
2019-01-05T10:30:50.077Z,989.543
2019-01-05T10:32:50.239Z,989.524
2019-01-05T10:34:49.652Z,989.535
2019-01-05T10:36:49.980Z,989.536
2019-01-05T10:38:50.041Z,989.488
2019-01-05T10:40:50.534Z,989.482
2019-01-05T10:42:50.075Z,989.482
2019-01-05T10:44:50.109Z,989.491
2019-01-05T10:46:49.686Z,989.475
2019-01-05T10:48:50.154Z,989.456
2019-01-05T10:50:49.778Z,989.447
2019-01-05T10:52:49.975Z,989.402
2019-01-05T10:54:50.032Z,989.379
2019-01-05T10:56:50.322Z,989.395
2019-01-05T10:58:50.499Z,989.366
2019-01-05T11:00:49.619Z,989.391
2019-01-05T11:02:50.286Z,989.373
2019-01-05T11:04:49.757Z,989.363
2019-01-05T11:06:49.999Z,989.345
2019-01-05T11:08:50.072Z,989.314
2019-01-05T11:10:50.056Z,989.272
2019-01-05T11:12:50.466Z,989.266
2019-01-05T11:14:50.513Z,989.261
2019-01-05T11:16:50.419Z,989.239
2019-01-05T11:18:50.187Z,989.245
2019-01-05T11:20:50.063Z,989.234
2019-01-05T11:22:49.824Z,989.231
2019-01-05T11:24:49.999Z,989.211
2019-01-05T11:26:50.460Z,989.211
2019-01-05T11:28:50.195Z,989.180
2019-01-05T11:30:50.279Z,989.154
2019-01-05T11:32:50.368Z,989.143
2019-01-05T11:34:50.037Z,989.165
2019-01-05T11:36:50.306Z,989.161
2019-01-05T11:38:50.567Z,989.167
2019-01-05T11:40:49.973Z,989.145
2019-01-05T11:42:50.076Z,989.116
2019-01-05T11:44:50.241Z,989.114
2019-01-05T11:46:50.263Z,989.119
2019-01-05T11:48:49.931Z,989.119
2019-01-05T11:50:50.380Z,989.113
2019-01-05T11:52:50.395Z,989.087
2019-01-05T11:54:50.413Z,989.078
2019-01-05T11:56:49.755Z,989.094
2019-01-05T11:58:49.947Z,989.078
2019-01-05T12:00:50.110Z,989.029
2019-01-05T12:02:50.275Z,989.031
2019-01-05T12:04:50.235Z,989.025
2019-01-05T12:06:49.649Z,989.011
2019-01-05T12:08:49.771Z,989.028
2019-01-05T12:10:49.927Z,989.018
2019-01-05T12:12:49.906Z,988.956
2019-01-05T12:14:50.540Z,988.947
2019-01-05T12:16:49.848Z,988.925
2019-01-05T12:18:50.448Z,988.944
2019-01-05T12:20:50.552Z,988.926
2019-01-05T12:22:49.737Z,988.890
2019-01-05T12:24:49.794Z,988.893
2019-01-05T12:26:49.957Z,988.893
2019-01-05T12:28:49.884Z,988.866
2019-01-05T12:30:49.885Z,988.871
2019-01-05T12:32:49.911Z,988.872
2019-01-05T12:34:50.349Z,988.878
2019-01-05T12:36:50.469Z,988.887
2019-01-05T12:38:50.570Z,988.853
2019-01-05T12:40:50.114Z,988.855
2019-01-05T12:42:50.520Z,988.817
2019-01-05T12:44:50.589Z,988.811
2019-01-05T12:46:49.627Z,988.836
2019-01-05T12:48:49.772Z,988.820
2019-01-05T12:50:49.725Z,988.817
2019-01-05T12:52:49.856Z,988.816
2019-01-05T12:54:49.970Z,988.816
2019-01-05T12:56:50.096Z,988.784
2019-01-05T12:58:50.225Z,988.801
2019-01-05T13:00:50.069Z,988.820
2019-01-05T13:02:50.148Z,988.853
2019-01-05T13:04:50.505Z,988.897
2019-01-05T13:06:49.679Z,988.897
2019-01-05T13:08:50.212Z,988.894
2019-01-05T13:10:50.203Z,988.904
2019-01-05T13:12:49.890Z,988.901
2019-01-05T13:14:49.958Z,988.908
2019-01-05T13:16:54.850Z,988.875
2019-01-05T13:18:50.228Z,988.872
2019-01-05T13:20:50.233Z,988.885
2019-01-05T13:22:50.340Z,988.888
2019-01-05T13:24:50.504Z,988.912
2019-01-05T13:26:49.829Z,988.936
2019-01-05T13:28:49.890Z,988.970
2019-01-05T13:30:50.469Z,988.975
2019-01-05T13:32:50.538Z,988.992
2019-01-05T13:34:50.053Z,989.020
2019-01-05T13:36:50.183Z,989.027
2019-01-05T13:38:49.705Z,989.053
2019-01-05T13:40:49.831Z,989.090
2019-01-05T13:42:49.620Z,989.109
2019-01-05T13:44:49.644Z,989.141
2019-01-05T13:46:49.756Z,989.150
2019-01-05T13:48:49.767Z,989.164
2019-01-05T13:50:50.231Z,989.177
2019-01-05T13:52:49.889Z,989.194
2019-01-05T13:54:49.886Z,989.211
2019-01-05T13:56:49.613Z,989.204
2019-01-05T13:58:49.745Z,989.183
2019-01-05T14:00:50.455Z,989.187
2019-01-05T14:02:50.575Z,989.216
2019-01-05T14:04:49.868Z,989.233
2019-01-05T14:06:50.110Z,989.233
2019-01-05T14:08:50.161Z,989.214
2019-01-05T14:10:51.938Z,989.255
2019-01-05T14:12:49.965Z,989.251
2019-01-05T14:14:49.975Z,989.248
2019-01-05T14:16:50.299Z,989.251
2019-01-05T14:18:50.360Z,989.262
2019-01-05T14:20:50.434Z,989.255
2019-01-05T14:22:50.424Z,989.243
2019-01-05T14:24:50.386Z,989.217
2019-01-05T14:26:50.444Z,989.195
2019-01-05T14:28:50.293Z,989.203
2019-01-05T14:30:50.297Z,989.199
2019-01-05T14:32:50.270Z,989.213
2019-01-05T14:34:49.673Z,989.213
2019-01-05T14:36:49.939Z,989.215
2019-01-05T14:38:50.401Z,989.238
2019-01-05T14:40:50.273Z,989.230
2019-01-05T14:42:50.391Z,989.245
2019-01-05T14:44:50.403Z,989.245
2019-01-05T14:46:50.350Z,989.245
2019-01-05T14:48:50.442Z,989.297
2019-01-05T14:50:49.647Z,989.290
2019-01-05T14:52:49.625Z,989.322
2019-01-05T14:54:49.779Z,989.344
2019-01-05T14:56:50.114Z,989.413
2019-01-05T14:58:50.172Z,989.414
2019-01-05T15:00:50.170Z,989.406
2019-01-05T15:02:50.274Z,989.406
2019-01-05T15:04:50.425Z,989.414
2019-01-05T15:06:51.465Z,989.421
2019-01-05T15:08:50.466Z,989.428
2019-01-05T15:10:50.174Z,989.444
2019-01-05T15:12:49.829Z,989.463
2019-01-05T15:14:50.383Z,989.504
2019-01-05T15:16:50.552Z,989.502
2019-01-05T15:18:50.628Z,989.490
2019-01-05T15:20:50.571Z,989.496
2019-01-05T15:22:49.644Z,989.518
2019-01-05T15:24:50.557Z,989.554
2019-01-05T15:26:49.774Z,989.607
2019-01-05T15:28:49.901Z,989.649
2019-01-05T15:30:49.954Z,989.642
2019-01-05T15:32:49.978Z,989.613
2019-01-05T15:34:50.366Z,989.623
2019-01-05T15:36:49.611Z,989.615
2019-01-05T15:38:49.768Z,989.622
2019-01-05T15:40:49.818Z,989.633
2019-01-05T15:42:49.926Z,989.648
2019-01-05T15:44:50.383Z,989.638
2019-01-05T15:46:50.562Z,989.691
2019-01-05T15:48:50.228Z,989.714
2019-01-05T15:50:50.240Z,989.751
2019-01-05T15:52:50.248Z,989.764
2019-01-05T15:54:50.333Z,989.792
2019-01-05T15:56:49.718Z,989.818
2019-01-05T15:58:49.821Z,989.809
2019-01-05T16:00:49.887Z,989.780
2019-01-05T16:02:49.688Z,989.783
2019-01-05T16:04:50.106Z,989.784
2019-01-05T16:06:49.781Z,989.795
2019-01-05T16:08:49.733Z,989.816
2019-01-05T16:10:49.791Z,989.831
2019-01-05T16:12:49.707Z,989.829
2019-01-05T16:14:49.731Z,989.829
2019-01-05T16:16:49.983Z,989.835
2019-01-05T16:18:50.028Z,989.837
2019-01-05T16:20:49.924Z,989.848
2019-01-05T16:22:49.991Z,989.825
2019-01-05T16:24:50.128Z,989.798
2019-01-05T16:26:50.403Z,989.803
2019-01-05T16:28:50.411Z,989.800
2019-01-05T16:30:50.488Z,989.815
2019-01-05T16:32:50.573Z,989.812
2019-01-05T16:34:50.249Z,989.813
2019-01-05T16:36:50.468Z,989.816
2019-01-05T16:38:50.428Z,989.838
2019-01-05T16:40:50.338Z,989.844
2019-01-05T16:42:50.380Z,989.893
2019-01-05T16:44:50.446Z,989.901
2019-01-05T16:46:50.515Z,989.908
2019-01-05T16:48:50.515Z,989.908
2019-01-05T16:50:50.529Z,989.894
2019-01-05T16:52:49.629Z,989.857
2019-01-05T16:54:50.374Z,989.841
2019-01-05T16:56:49.818Z,989.830
2019-01-05T16:58:49.784Z,989.830
2019-01-05T17:00:49.919Z,989.867
2019-01-05T17:02:50.008Z,989.871
2019-01-05T17:04:50.419Z,989.876
2019-01-05T17:06:50.139Z,989.870
2019-01-05T17:08:50.214Z,989.852
2019-01-05T17:10:50.259Z,989.886
2019-01-05T17:12:49.893Z,989.861
2019-01-05T17:14:49.886Z,989.862
2019-01-05T17:16:50.175Z,989.853
2019-01-05T17:18:49.844Z,989.856
2019-01-05T17:20:50.411Z,989.860
2019-01-05T17:22:50.475Z,989.860
2019-01-05T17:24:50.574Z,989.866
2019-01-05T17:26:49.908Z,989.882
2019-01-05T17:28:50.038Z,989.898
2019-01-05T17:30:50.113Z,989.919
2019-01-05T17:32:50.215Z,989.925
2019-01-05T17:34:49.715Z,989.929
2019-01-05T17:36:50.405Z,989.933
2019-01-05T17:38:50.354Z,989.929
2019-01-05T17:40:50.258Z,989.928
2019-01-05T17:42:50.366Z,989.945
2019-01-05T17:44:50.101Z,989.941
2019-01-05T17:46:50.370Z,989.920
2019-01-05T17:48:50.547Z,989.930
2019-01-05T17:50:50.312Z,989.946
2019-01-05T17:52:50.366Z,989.995
2019-01-05T17:54:50.478Z,989.995
2019-01-05T17:56:49.724Z,990.022
2019-01-05T17:58:50.343Z,990.046
2019-01-05T18:00:50.241Z,990.058
2019-01-05T18:02:50.268Z,990.049
2019-01-05T18:04:49.695Z,990.058
2019-01-05T18:06:50.438Z,990.098
2019-01-05T18:08:50.548Z,990.114
2019-01-05T18:10:50.606Z,990.126
2019-01-05T18:12:49.696Z,990.126
2019-01-05T18:14:50.388Z,990.154
2019-01-05T18:16:50.440Z,990.163
2019-01-05T18:18:50.091Z,990.192
2019-01-05T18:20:50.132Z,990.210
2019-01-05T18:22:49.828Z,990.243
2019-01-05T18:24:49.847Z,990.255
2019-01-05T18:26:50.284Z,990.243
2019-01-05T18:28:50.345Z,990.252
2019-01-05T18:30:49.958Z,990.246
2019-01-05T18:32:49.975Z,990.230
2019-01-05T18:34:50.388Z,990.224
2019-01-05T18:36:49.773Z,990.219
2019-01-05T18:38:49.837Z,990.234
2019-01-05T18:40:49.850Z,990.243
2019-01-05T18:42:49.946Z,990.251
2019-01-05T18:44:49.680Z,990.243
2019-01-05T18:46:50.327Z,990.248
2019-01-05T18:48:50.064Z,990.239
2019-01-05T18:50:50.324Z,990.221
2019-01-05T18:52:50.250Z,990.209
2019-01-05T18:54:50.296Z,990.200
2019-01-05T18:56:50.540Z,990.189
2019-01-05T18:58:49.667Z,990.193
2019-01-05T19:00:49.680Z,990.214
2019-01-05T19:02:49.654Z,990.212
2019-01-05T19:04:50.332Z,990.207
2019-01-05T19:06:50.627Z,990.219
2019-01-05T19:08:49.973Z,990.218
2019-01-05T19:10:50.556Z,990.214
2019-01-05T19:12:49.653Z,990.235
2019-01-05T19:14:50.311Z,990.240
2019-01-05T19:16:50.199Z,990.251
2019-01-05T19:18:50.314Z,990.247
2019-01-05T19:20:49.865Z,990.257
2019-01-05T19:22:50.062Z,990.264
2019-01-05T19:24:49.757Z,990.260
2019-01-05T19:26:50.215Z,990.243
2019-01-05T19:28:49.691Z,990.244
2019-01-05T19:30:50.122Z,990.252
2019-01-05T19:32:50.193Z,990.241
2019-01-05T19:34:49.720Z,990.245
2019-01-05T19:36:50.201Z,990.237
2019-01-05T19:38:50.339Z,990.246
2019-01-05T19:40:50.032Z,990.262
2019-01-05T19:42:50.114Z,990.254
2019-01-05T19:44:49.907Z,990.255
2019-01-05T19:46:50.013Z,990.232
2019-01-05T19:48:49.620Z,990.217
2019-01-05T19:50:49.783Z,990.247
2019-01-05T19:52:50.563Z,990.236
2019-01-05T19:54:50.240Z,990.236
2019-01-05T19:56:50.442Z,990.236
2019-01-05T19:58:50.145Z,990.183
2019-01-05T20:00:50.173Z,990.166
2019-01-05T20:02:50.207Z,990.166
2019-01-05T20:04:50.111Z,990.184
2019-01-05T20:06:50.393Z,990.195
2019-01-05T20:08:50.474Z,990.176
2019-01-05T20:10:50.333Z,990.188
2019-01-05T20:12:50.104Z,990.186
2019-01-05T20:14:49.987Z,990.186
2019-01-05T20:16:49.692Z,990.193
2019-01-05T20:18:49.803Z,990.186
2019-01-05T20:20:49.803Z,990.194
2019-01-05T20:22:49.929Z,990.192
2019-01-05T20:24:49.991Z,990.195
2019-01-05T20:26:50.171Z,990.195
2019-01-05T20:28:50.223Z,990.179
2019-01-05T20:30:49.907Z,990.177
2019-01-05T20:32:49.924Z,990.175
2019-01-05T20:34:50.336Z,990.173
2019-01-05T20:36:50.550Z,990.182
2019-01-05T20:38:49.630Z,990.181
2019-01-05T20:40:50.590Z,990.184
2019-01-05T20:42:50.258Z,990.211
2019-01-05T20:44:50.279Z,990.216
2019-01-05T20:46:50.113Z,990.220
2019-01-05T20:48:50.235Z,990.220
2019-01-05T20:50:50.061Z,990.231
2019-01-05T20:52:49.891Z,990.249
2019-01-05T20:54:49.930Z,990.249
2019-01-05T20:56:50.130Z,990.245
2019-01-05T20:58:50.207Z,990.237
2019-01-05T21:00:50.221Z,990.238
2019-01-05T21:02:50.227Z,990.239
2019-01-05T21:04:49.738Z,990.250
2019-01-05T21:06:50.454Z,990.265
2019-01-05T21:08:50.488Z,990.262
2019-01-05T21:10:50.623Z,990.265
2019-01-05T21:12:50.401Z,990.271
2019-01-05T21:14:50.443Z,990.274
2019-01-05T21:16:49.686Z,990.301
2019-01-05T21:18:50.350Z,990.291
2019-01-05T21:20:50.395Z,990.315
2019-01-05T21:22:50.274Z,990.329
2019-01-05T21:24:50.493Z,990.355
2019-01-05T21:26:49.771Z,990.368
2019-01-05T21:28:49.882Z,990.375
2019-01-05T21:30:49.831Z,990.379
2019-01-05T21:32:49.763Z,990.384
2019-01-05T21:34:50.143Z,990.400
2019-01-05T21:36:50.352Z,990.406
2019-01-05T21:38:50.242Z,990.414
2019-01-05T21:40:50.375Z,990.408
2019-01-05T21:42:50.445Z,990.440
2019-01-05T21:44:50.204Z,990.446
2019-01-05T21:46:49.835Z,990.433
2019-01-05T21:48:49.872Z,990.411
2019-01-05T21:50:49.699Z,990.400
2019-01-05T21:52:49.701Z,990.409
2019-01-05T21:54:49.662Z,990.414
2019-01-05T21:56:50.013Z,990.414
2019-01-05T21:58:50.104Z,990.381
2019-01-05T22:00:50.284Z,990.400
2019-01-05T22:02:50.370Z,990.416
2019-01-05T22:04:49.720Z,990.420
2019-01-05T22:06:50.390Z,990.439
2019-01-05T22:08:50.590Z,990.442
2019-01-05T22:10:50.485Z,990.448
2019-01-05T22:12:50.490Z,990.439
2019-01-05T22:14:50.470Z,990.444
2019-01-05T22:16:49.666Z,990.465
2019-01-05T22:18:50.331Z,990.486
2019-01-05T22:20:49.739Z,990.506
2019-01-05T22:22:50.408Z,990.527
2019-01-05T22:24:50.382Z,990.562
2019-01-05T22:26:49.697Z,990.580
2019-01-05T22:28:50.211Z,990.574
2019-01-05T22:30:50.219Z,990.563
2019-01-05T22:32:50.263Z,990.565
2019-01-05T22:34:49.709Z,990.575
2019-01-05T22:36:50.780Z,990.595
2019-01-05T22:38:49.811Z,990.608
2019-01-05T22:40:49.730Z,990.606
2019-01-05T22:42:49.656Z,990.608
2019-01-05T22:44:49.738Z,990.626
2019-01-05T22:46:50.114Z,990.633
2019-01-05T22:48:50.156Z,990.633
2019-01-05T22:50:50.195Z,990.642
2019-01-05T22:52:50.236Z,990.628
2019-01-05T22:54:50.351Z,990.619
2019-01-05T22:56:49.735Z,990.620
2019-01-05T22:58:49.815Z,990.624
2019-01-05T23:00:49.845Z,990.633
2019-01-05T23:02:49.872Z,990.617
2019-01-05T23:04:50.917Z,990.620
2019-01-05T23:06:50.051Z,990.642
2019-01-05T23:08:50.183Z,990.632
2019-01-05T23:10:50.259Z,990.617
2019-01-05T23:12:50.187Z,990.617
2019-01-05T23:14:50.213Z,990.630
2019-01-05T23:16:49.876Z,990.620
2019-01-05T23:18:49.874Z,990.628
2019-01-05T23:20:49.871Z,990.624
2019-01-05T23:22:49.937Z,990.628
2019-01-05T23:24:49.959Z,990.638
2019-01-05T23:26:50.153Z,990.646
2019-01-05T23:28:49.873Z,990.643
2019-01-05T23:30:49.910Z,990.628
2019-01-05T23:32:49.914Z,990.637
2019-01-05T23:34:50.296Z,990.646
2019-01-05T23:36:50.568Z,990.651
2019-01-05T23:38:50.762Z,990.640
2019-01-05T23:40:49.828Z,990.643
2019-01-05T23:42:49.882Z,990.636
2019-01-05T23:44:49.897Z,990.653
2019-01-05T23:46:50.175Z,990.664
2019-01-05T23:48:50.239Z,990.662
2019-01-05T23:50:49.942Z,990.678
2019-01-05T23:52:50.063Z,990.716
2019-01-05T23:54:50.144Z,990.742
2019-01-05T23:56:50.433Z,990.755
2019-01-05T23:58:49.624Z,990.745
